Time;durP1;ratioP1;P1;durP2;ratioP2;P2;SDS_P1;SDS_P2;PMS_P1;PMS_P2;Temp;Humidity;BMP_temperature;BMP_pressure;BME280_temperature;BME280_humidity;BME280_pressure;Samples;Min_cycle;Max_cycle;Signal;HPM_P1;HPM_P2
2022/05/27 00:01:26;;;;;;;11.30;10.10;;;;;;;21.69;72.50;101670.84;5072973;28;20043;-81
2022/05/27 00:03:52;;;;;;;10.48;9.48;;;;;;;21.72;72.49;101681.56;5075881;28;20485;-81
2022/05/27 00:06:17;;;;;;;;;;;;;;;21.75;72.30;101682.50;5073864;28;20113;-81
2022/05/27 00:08:43;;;;;;;10.43;9.43;;;;;;;21.72;72.49;101684.22;5090627;28;20073;-82
2022/05/27 00:11:09;;;;;;;10.73;9.73;;;;;;;21.67;72.44;101678.75;5092382;28;20039;-82
2022/05/27 00:13:35;;;;;;;11.55;10.20;;;;;;;21.66;72.47;101674.31;5074662;28;20036;-81
2022/05/27 00:16:01;;;;;;;10.90;9.77;;;;;;;21.70;72.41;101680.63;5092393;28;20341;-81
2022/05/27 00:18:26;;;;;;;10.82;9.73;;;;;;;21.71;72.40;101682.41;5073456;28;20028;-81
2022/05/27 00:20:52;;;;;;;10.25;9.25;;;;;;;21.71;72.40;101685.06;5104280;28;20032;-81
2022/05/27 00:23:18;;;;;;;11.18;10.07;;;;;;;21.55;72.31;101660.78;5093805;28;20035;-82
2022/05/27 00:25:44;;;;;;;11.10;10.00;;;;;;;21.69;72.27;101687.66;5092494;28;20032;-82
2022/05/27 00:28:10;;;;;;;10.82;9.80;;;;;;;21.68;72.23;101674.38;5073102;28;20481;-82
2022/05/27 00:30:36;;;;;;;10.63;9.63;;;;;;;21.69;72.19;101677.03;5090233;28;20070;-82
2022/05/27 00:33:03;;;;;;;10.90;9.85;;;;;;;21.68;72.30;101674.38;5093168;28;20039;-82
2022/05/27 00:35:29;;;;;;;10.88;9.70;;;;;;;21.68;72.09;101677.91;5074101;28;20111;-82
2022/05/27 00:37:54;;;;;;;;;;;;;;;21.72;72.18;101678.91;5072351;28;20077;-82
2022/05/27 00:40:21;;;;;;;10.00;9.00;;;;;;;21.68;72.21;101677.03;5075068;28;19912;-82
2022/05/27 00:42:47;;;;;;;10.13;9.13;;;;;;;21.66;72.38;101676.97;5072411;28;20426;-82
2022/05/27 00:45:18;;;;;;;10.45;9.40;;;;;;;21.67;72.20;101683.19;5089920;28;20035;-81
2022/05/27 00:47:45;;;;;;;11.25;8.95;;;;;;;21.55;72.28;101662.56;5083291;28;20080;-82
2022/05/27 00:50:14;;;;;;;9.77;8.88;;;;;;;21.66;72.22;101679.63;5091545;28;20036;-81
2022/05/27 00:52:40;;;;;;;10.02;9.07;;;;;;;21.64;72.36;101681.38;5090761;28;20023;-81
2022/05/27 00:55:06;;;;;;;;;;;;;;;21.68;71.98;101683.22;5072652;28;20028;-81
2022/05/27 00:58:08;;;;;;;10.13;9.13;;;;;;;21.63;72.10;101673.34;5091684;28;19920;-82
2022/05/27 01:00:34;;;;;;;9.20;8.32;;;;;;;21.64;72.17;101680.47;5048286;28;20040;-82
2022/05/27 01:03:01;;;;;;;10.23;9.23;;;;;;;21.63;72.15;101687.56;5094707;28;20027;-82
2022/05/27 01:05:26;;;;;;;10.30;9.32;;;;;;;21.58;72.24;101675.00;5075320;28;20059;-82
2022/05/27 01:07:57;;;;;;;12.25;10.57;;;;;;;21.64;72.15;101692.00;5091588;28;20402;-83
2022/05/27 01:10:24;;;;;;;11.27;10.07;;;;;;;21.64;72.10;101688.44;5089828;28;20470;-83
2022/05/27 01:13:15;;;;;;;11.48;10.35;;;;;;;21.64;72.07;101686.69;5091246;28;20085;-82
2022/05/27 01:15:47;;;;;;;11.10;10.00;;;;;;;21.63;72.17;101684.91;5094548;28;20075;-83
2022/05/27 01:21:37;;;;;;;11.65;10.48;;;;;;;21.62;72.04;101688.41;5092612;28;20079;-83
2022/05/27 01:24:35;;;;;;;12.48;10.85;;;;;;;21.59;71.99;101680.38;5092304;28;20027;-81
2022/05/27 01:27:11;;;;;;;13.27;11.57;;;;;;;21.57;72.03;101673.19;5021396;28;20182;-83
2022/05/27 01:29:40;;;;;;;;;;;;;;;21.64;71.92;101684.03;5074164;28;20032;-83
2022/05/27 01:32:12;;;;;;;12.45;11.15;;;;;;;21.53;72.09;101673.16;5090067;28;20352;-84
2022/05/27 01:34:37;;;;;;;13.73;11.82;;;;;;;21.59;72.15;101685.69;5089184;28;20019;-82
2022/05/27 01:37:37;;;;;;;13.73;11.63;;;;;;;21.60;72.04;101695.44;5090560;28;20035;-83
2022/05/27 01:40:11;;;;;;;13.25;11.85;;;;;;;21.60;72.09;101694.56;5090520;28;20047;-83
2022/05/27 01:42:50;;;;;;;12.80;11.50;;;;;;;21.55;72.07;101687.38;5073023;28;20024;-83
2022/05/27 01:45:25;;;;;;;13.55;12.15;;;;;;;21.58;72.10;101688.31;5072191;28;20028;-83
2022/05/27 01:48:03;;;;;;;13.63;12.23;;;;;;;21.38;72.01;101653.22;5071915;28;20107;-82
2022/05/27 01:50:45;;;;;;;13.85;12.45;;;;;;;21.58;71.82;101689.19;5090650;28;20535;-82
2022/05/27 01:53:27;;;;;;;14.05;12.57;;;;;;;21.57;71.94;101679.44;5072980;28;20024;-83
2022/05/27 01:55:58;;;;;;;15.30;12.60;;;;;;;21.58;71.99;101698.94;5072034;28;20031;-83
2022/05/27 01:58:30;;;;;;;14.68;13.13;;;;;;;21.53;72.04;101690.84;5072748;28;20036;-82
2022/05/27 02:00:55;;;;;;;13.68;12.27;;;;;;;21.51;71.93;101689.94;5072975;28;20050;-82
2022/05/27 02:03:25;;;;;;;14.80;12.88;;;;;;;21.53;72.07;101688.19;5072894;28;20487;-83
2022/05/27 02:06:04;;;;;;;14.52;12.70;;;;;;;21.48;71.95;101682.78;5089050;28;20509;-83
2022/05/27 02:08:34;;;;;;;14.60;12.05;;;;;;;21.57;71.97;101691.81;5053502;28;20078;-83
2022/05/27 02:11:16;;;;;;;13.65;12.25;;;;;;;21.56;71.79;101696.22;5071208;28;20054;-82
2022/05/27 02:13:56;;;;;;;15.35;12.55;;;;;;;21.55;71.82;101703.31;5055162;28;20020;-82
2022/05/27 02:16:33;;;;;;;14.65;12.88;;;;;;;21.54;71.94;101698.84;5071639;28;20032;-80
2022/05/27 02:19:04;;;;;;;15.45;12.80;;;;;;;21.53;71.81;101698.84;5081681;28;20064;-81
2022/05/27 02:22:02;;;;;;;15.57;12.70;;;;;;;21.41;71.80;101688.75;5088850;28;20052;-81
2022/05/27 02:24:37;;;;;;;14.95;12.75;;;;;;;21.53;71.88;101707.69;5092123;28;20050;-80
2022/05/27 02:27:12;;;;;;;14.27;12.77;;;;;;;21.51;71.88;101714.72;5047807;28;20028;-82
2022/05/27 02:29:38;;;;;;;14.02;12.27;;;;;;;21.50;71.89;101706.72;5081982;28;20494;-82
2022/05/27 02:32:10;;;;;;;12.90;11.55;;;;;;;21.46;71.80;101699.53;5076574;28;20116;-83
2022/05/27 02:37:41;;;;;;;14.30;12.80;;;;;;;21.52;71.88;101712.97;5078730;28;20047;-83
2022/05/27 02:40:11;;;;;;;14.30;12.23;;;;;;;21.48;71.86;101716.41;5075779;28;20032;-83
2022/05/27 02:42:49;;;;;;;13.90;12.43;;;;;;;21.40;71.69;101708.22;5094238;28;20112;-83
2022/05/27 02:45:23;;;;;;;13.60;12.02;;;;;;;21.50;71.54;101728.88;5094285;28;20086;-83
2022/05/27 02:48:04;;;;;;;13.80;11.77;;;;;;;21.47;71.78;101728.81;5092973;28;20037;-83
2022/05/27 02:50:38;;;;;;;14.65;11.75;;;;;;;21.48;71.73;101725.31;5079783;28;20062;-82
2022/05/27 02:53:32;;;;;;;14.07;12.52;;;;;;;21.47;71.74;101719.94;5094069;28;20493;-83
2022/05/27 02:56:01;;;;;;;15.32;12.75;;;;;;;21.48;71.69;101722.66;5072521;28;20040;-83
2022/05/27 02:58:28;;;;;;;14.50;13.00;;;;;;;21.47;71.65;101719.94;5094032;28;20039;-83
2022/05/27 03:00:54;;;;;;;15.25;13.30;;;;;;;21.40;71.45;101707.31;5092991;28;20032;-83
2022/05/27 03:03:20;;;;;;;15.00;12.93;;;;;;;21.45;71.56;101711.94;5074862;28;20115;-83
2022/05/27 03:05:51;;;;;;;14.48;12.80;;;;;;;21.47;71.65;101722.59;5075442;28;20122;-83
2022/05/27 03:08:25;;;;;;;13.98;12.48;;;;;;;21.47;71.67;101726.16;5093572;28;20028;-83
2022/05/27 03:11:12;;;;;;;14.73;12.85;;;;;;;21.46;71.61;101729.69;5074790;28;20119;-83
2022/05/27 03:13:58;;;;;;;14.80;12.60;;;;;;;21.33;71.48;101708.94;5084170;28;20081;-83
2022/05/27 03:16:35;;;;;;;14.27;12.25;;;;;;;21.45;71.59;101730.53;5092942;28;20036;-83
2022/05/27 03:19:03;;;;;;;;;;;;;;;21.48;71.52;101735.00;5075714;28;20576;-83
2022/05/27 03:21:50;;;;;;;13.50;11.63;;;;;;;21.44;71.60;101741.13;5074909;28;20311;-84
2022/05/27 03:24:20;;;;;;;13.82;12.30;;;;;;;21.44;71.50;101734.06;5061796;28;20032;-84
2022/05/27 03:27:13;;;;;;;13.88;12.00;;;;;;;21.43;71.60;101734.00;5068135;28;20040;-83
2022/05/27 03:30:09;;;;;;;13.60;12.20;;;;;;;21.44;71.57;101739.38;5094668;28;20035;-83
2022/05/27 03:32:38;;;;;;;14.00;12.27;;;;;;;21.41;71.60;101739.25;5053069;28;20036;-83
2022/05/27 03:35:16;;;;;;;14.63;12.65;;;;;;;21.41;71.57;101733.94;5076313;28;20059;-83
2022/05/27 03:37:44;;;;;;;14.65;12.82;;;;;;;21.41;71.64;101739.25;5093235;28;20064;-84
2022/05/27 03:40:25;;;;;;;14.00;12.48;;;;;;;21.35;71.94;101734.66;5090666;28;20039;-83
2022/05/27 03:42:51;;;;;;;13.70;12.30;;;;;;;21.41;71.45;101746.31;5073161;28;20055;-82
2022/05/27 03:45:18;;;;;;;;;;;;;;;21.44;71.45;101755.31;5076205;28;20040;-83
2022/05/27 03:47:45;;;;;;;13.25;11.85;;;;;;;21.34;71.50;101739.97;5093193;28;19912;-82
2022/05/27 03:50:15;;;;;;;13.05;11.70;;;;;;;21.35;71.56;101747.06;5092105;28;20028;-82
2022/05/27 03:52:44;;;;;;;14.90;12.55;;;;;;;21.39;71.48;101762.22;5075088;28;20405;-82
2022/05/27 03:55:12;;;;;;;15.07;11.68;;;;;;;21.37;71.59;101758.63;5075019;28;20078;-82
2022/05/27 03:57:38;;;;;;;13.13;11.70;;;;;;;21.37;71.55;101755.97;5075149;28;20020;-82
2022/05/27 04:00:05;;;;;;;13.93;12.45;;;;;;;21.39;71.60;101764.88;5091757;28;20737;-83
2022/05/27 04:02:31;;;;;;;14.90;12.48;;;;;;;21.39;71.55;101759.56;5074624;28;20040;-83
2022/05/27 04:04:56;;;;;;;13.52;12.07;;;;;;;21.36;71.53;101762.16;5091051;28;20039;-82
2022/05/27 04:07:23;;;;;;;14.85;11.68;;;;;;;21.38;71.63;101765.75;5092834;28;20381;-82
2022/05/27 04:09:49;;;;;;;13.57;12.10;;;;;;;21.38;71.52;101770.16;5057785;28;20047;-83
2022/05/27 04:12:15;;;;;;;16.98;12.20;;;;;;;21.37;71.39;101771.03;5091440;28;20496;-82
2022/05/27 04:14:40;;;;;;;14.68;12.73;;;;;;;21.38;71.61;101773.72;5091457;28;20040;-82
2022/05/27 04:19:50;;;;;;;14.45;12.27;;;;;;;21.31;71.72;101767.38;5091779;28;20520;-82
2022/05/27 04:22:15;;;;;;;14.43;12.93;;;;;;;21.30;71.65;101762.91;5090139;28;20040;-82
2022/05/27 04:24:41;;;;;;;14.57;12.95;;;;;;;21.38;71.67;101778.13;5081502;28;20033;-82
2022/05/27 04:27:12;;;;;;;14.38;12.45;;;;;;;21.38;71.54;101784.34;5088798;28;20173;-82
2022/05/27 04:29:43;;;;;;;13.60;12.23;;;;;;;21.37;71.73;101785.19;5091744;28;20114;-82
2022/05/27 04:32:09;;;;;;;14.55;13.02;;;;;;;21.38;71.69;101791.41;5100708;28;20023;-82
2022/05/27 04:34:34;;;;;;;13.90;12.50;;;;;;;21.38;71.74;101792.34;5092039;28;20107;-82
2022/05/27 04:37:00;;;;;;;14.57;12.32;;;;;;;21.23;71.70;101768.00;5074068;28;20034;-82
2022/05/27 04:39:26;;;;;;;12.25;10.95;;;;;;;21.30;71.53;101781.50;5092054;28;20494;-83
2022/05/27 04:41:52;;;;;;;14.07;12.32;;;;;;;21.34;71.47;101788.69;5092015;28;20028;-83
2022/05/27 04:44:18;;;;;;;15.65;12.15;;;;;;;21.35;71.66;101784.25;5090016;28;20398;-83
2022/05/27 04:46:45;;;;;;;11.60;10.50;;;;;;;21.40;71.67;101802.97;5090472;28;20028;-82
2022/05/27 04:49:50;;;;;;;11.20;10.10;;;;;;;21.30;71.63;101778.84;5074612;28;20095;-83
2022/05/27 04:51:57;;;;;;;11.65;10.45;;;;;;;21.38;71.67;101791.41;5074243;28;20535;-82
2022/05/27 04:54:23;;;;;;;10.57;9.45;;;;;;;21.39;71.64;101798.53;5091237;28;20525;-83
2022/05/27 04:56:49;;;;;;;9.82;8.93;;;;;;;21.38;71.72;101795.00;5090702;28;20024;-82
2022/05/27 04:59:14;;;;;;;10.38;9.35;;;;;;;21.30;71.63;101780.59;5073510;28;20028;-83
2022/05/27 05:01:40;;;;;;;11.10;10.00;;;;;;;21.40;71.62;101800.31;5090084;28;20039;-81
2022/05/27 05:04:05;;;;;;;10.27;9.20;;;;;;;21.34;71.57;101791.34;5085137;28;20036;-81
2022/05/27 05:06:31;;;;;;;10.73;9.20;;;;;;;21.38;71.63;101800.31;5090836;28;20496;-82
2022/05/27 05:08:57;;;;;;;10.40;9.20;;;;;;;21.39;71.55;101794.13;5091544;28;20469;-81
2022/05/27 05:11:23;;;;;;;10.85;9.75;;;;;;;21.37;71.63;101800.25;5070022;28;20085;-83
2022/05/27 05:13:57;;;;;;;10.13;9.15;;;;;;;21.31;71.65;101796.59;5093150;27;20413;-83
2022/05/27 05:16:23;;;;;;;10.40;9.15;;;;;;;21.30;71.55;101784.16;5085669;28;20043;-83
2022/05/27 05:18:50;;;;;;;10.10;9.10;;;;;;;21.25;71.46;101777.81;5087804;28;20070;-83
2022/05/27 05:21:16;;;;;;;9.93;8.93;;;;;;;21.24;71.56;101781.31;5085400;28;20528;-85
2022/05/27 05:23:42;;;;;;;10.25;9.25;;;;;;;21.30;71.48;101794.78;5085890;28;20059;-84
2022/05/27 05:26:08;;;;;;;11.07;9.52;;;;;;;21.29;71.54;101784.09;5089568;28;20039;-84
2022/05/27 05:28:33;;;;;;;10.98;9.88;;;;;;;21.39;71.53;101801.19;5099164;28;20016;-83
2022/05/27 05:30:59;;;;;;;10.35;9.35;;;;;;;21.37;71.38;101793.16;5088172;28;20476;-83
2022/05/27 05:33:25;;;;;;;11.10;9.75;;;;;;;21.33;71.66;101788.63;5096373;28;20032;-83
2022/05/27 05:35:50;;;;;;;10.13;9.23;;;;;;;21.40;71.58;101795.94;5088702;28;20413;-83
2022/05/27 05:38:17;;;;;;;10.68;9.60;;;;;;;21.33;71.47;101786.88;5088506;28;20035;-83
2022/05/27 05:40:43;;;;;;;10.20;9.05;;;;;;;21.26;71.38;101768.09;5079251;28;20017;-83
2022/05/27 05:43:09;;;;;;;10.25;9.35;;;;;;;21.40;71.58;101790.63;5076510;28;20047;-85
2022/05/27 05:45:34;;;;;;;10.57;9.57;;;;;;;21.34;71.53;101785.13;5099987;28;20036;-85
2022/05/27 05:48:00;;;;;;;10.45;9.45;;;;;;;21.37;71.58;101789.63;5107725;28;20028;-84
2022/05/27 05:50:27;;;;;;;10.55;9.23;;;;;;;21.38;71.48;101775.47;5097726;28;20072;-84
2022/05/27 05:52:53;;;;;;;10.23;9.13;;;;;;;21.40;71.53;101795.94;5081973;28;20024;-84
2022/05/27 05:55:20;;;;;;;10.27;9.27;;;;;;;21.19;71.65;101756.41;5081976;28;20032;-84
2022/05/27 05:57:46;;;;;;;;;;;;;;;21.44;71.64;101794.25;5081951;28;20444;-84
2022/05/27 06:00:18;;;;;;;10.00;9.10;;;;;;;21.33;71.71;101785.97;5093304;28;19916;-85
2022/05/27 06:02:44;;;;;;;10.02;9.02;;;;;;;21.26;71.52;101768.97;5089365;28;20020;-84
2022/05/27 06:05:10;;;;;;;10.20;9.05;;;;;;;21.37;71.64;101790.50;5086537;28;20051;-84
2022/05/27 06:07:36;;;;;;;10.68;9.57;;;;;;;21.17;71.73;101750.16;5084817;28;20028;-84
2022/05/27 06:10:03;;;;;;;11.07;9.18;;;;;;;21.03;71.65;101733.84;5068419;28;20051;-83
2022/05/27 06:12:32;;;;;;;10.63;9.27;;;;;;;21.44;71.66;101799.56;5086037;28;20036;-84
2022/05/27 06:14:59;;;;;;;10.18;9.05;;;;;;;21.45;71.74;101798.72;5082723;28;20028;-85
2022/05/27 06:17:27;;;;;;;9.93;9.02;;;;;;;21.37;71.56;101787.84;5084421;28;20050;-84
2022/05/27 06:19:53;;;;;;;10.52;9.20;;;;;;;21.46;71.61;101806.75;5090301;28;20060;-85
2022/05/27 06:22:18;;;;;;;;;;;;;;;21.49;71.73;101795.28;5086393;28;20031;-84
2022/05/27 06:24:44;;;;;;;10.13;9.13;;;;;;;21.21;71.62;101754.69;5076514;28;19916;-85
2022/05/27 06:27:09;;;;;;;10.02;9.02;;;;;;;21.34;71.71;101777.16;5073832;28;20025;-83
2022/05/27 06:35:03;;;;;;;10.30;9.30;;;;;;;21.47;71.67;101797.00;5073903;28;20035;-85
2022/05/27 06:37:29;;;;;;;;;;;;;;;21.47;71.72;101789.03;5074550;28;20121;-84
2022/05/27 06:39:54;;;;;;;10.38;9.38;;;;;;;21.46;71.64;101781.91;5058714;28;20393;-84
2022/05/27 06:42:22;;;;;;;10.55;9.52;;;;;;;21.46;71.69;101788.16;5069329;28;20055;-84
2022/05/27 06:44:47;;;;;;;10.77;9.68;;;;;;;21.31;71.82;101764.72;5054818;28;20257;-83
2022/05/27 06:47:13;;;;;;;10.32;9.27;;;;;;;21.49;71.75;101790.88;5073748;28;20029;-83
2022/05/27 06:49:45;;;;;;;;;;;;;;;21.49;71.89;101789.97;5074121;28;20035;-84
2022/05/27 06:52:12;;;;;;;10.98;9.70;;;;;;;21.46;71.82;101782.84;5071896;28;20316;-84
2022/05/27 06:54:37;;;;;;;12.32;9.88;;;;;;;21.40;71.45;101771.09;5072540;28;20548;-84
2022/05/27 06:57:06;;;;;;;10.63;9.55;;;;;;;21.36;71.86;101770.13;5073653;28;20293;-84
2022/05/27 06:59:33;;;;;;;10.90;9.80;;;;;;;21.43;71.96;101779.19;5075138;28;20116;-84
2022/05/27 07:01:59;;;;;;;10.20;9.20;;;;;;;21.47;72.07;101789.03;5072307;28;20043;-83
2022/05/27 07:04:25;;;;;;;;;;;;;;;21.51;71.90;101785.59;5072494;28;20033;-83
2022/05/27 07:06:53;;;;;;;10.88;9.80;;;;;;;21.34;71.82;101758.56;5073199;28;19962;-83
2022/05/27 07:09:21;;;;;;;10.93;9.93;;;;;;;21.38;72.13;101771.06;5070316;28;20028;-83
2022/05/27 07:11:50;;;;;;;10.60;9.50;;;;;;;21.46;72.01;101771.28;5062746;28;20107;-84
2022/05/27 07:14:17;;;;;;;11.30;10.07;;;;;;;21.49;72.02;101774.03;5074099;28;20032;-84
2022/05/27 07:16:44;;;;;;;10.85;9.73;;;;;;;21.32;72.02;101744.34;5073371;28;20020;-83
2022/05/27 07:19:10;;;;;;;11.10;10.10;;;;;;;21.41;71.84;101763.16;5070449;28;20028;-83
2022/05/27 07:21:43;;;;;;;10.63;9.63;;;;;;;21.37;72.24;101752.41;5070450;28;20402;-82
2022/05/27 07:24:11;;;;;;;10.77;9.68;;;;;;;21.50;72.10;101779.38;5074596;28;20111;-82
2022/05/27 07:26:38;;;;;;;10.70;9.68;;;;;;;21.51;71.97;101780.28;5081800;28;20024;-82
2022/05/27 07:29:05;;;;;;;10.55;9.55;;;;;;;21.51;72.04;101781.19;5076186;28;20035;-83
2022/05/27 07:31:31;;;;;;;10.73;9.73;;;;;;;21.46;72.00;101785.50;5072703;28;20103;-83
2022/05/27 07:33:59;;;;;;;11.00;9.68;;;;;;;21.45;72.27;101773.03;5075027;28;20043;-83
2022/05/27 07:36:25;;;;;;;11.32;10.00;;;;;;;21.43;71.79;101766.78;5070842;28;20501;-83
2022/05/27 07:38:52;;;;;;;10.40;9.40;;;;;;;21.52;72.09;101782.06;5071250;28;20034;-83
2022/05/27 07:41:19;;;;;;;10.02;9.13;;;;;;;21.34;72.02;101761.22;5074257;28;20410;-83
2022/05/27 07:43:45;;;;;;;10.77;9.70;;;;;;;21.53;72.25;101784.78;5071555;28;20537;-83
2022/05/27 07:46:12;;;;;;;10.80;9.73;;;;;;;21.54;72.29;101780.34;5072483;28;20154;-84
2022/05/27 07:48:37;;;;;;;10.82;9.73;;;;;;;21.55;72.09;101782.16;5056075;28;20033;-83
2022/05/27 07:51:03;;;;;;;10.98;9.98;;;;;;;21.55;71.95;101785.72;5071350;28;20029;-84
2022/05/27 07:53:29;;;;;;;10.40;9.40;;;;;;;21.23;72.12;101725.47;5074421;28;20043;-85
2022/05/27 07:55:54;;;;;;;10.70;9.60;;;;;;;21.56;72.01;101789.25;5072804;28;20131;-82
2022/05/27 07:58:20;;;;;;;11.18;10.07;;;;;;;21.53;72.25;101787.44;5072503;28;20036;-82
2022/05/27 08:00:46;;;;;;;10.95;9.85;;;;;;;21.49;72.31;101780.25;5054391;28;20394;-82
2022/05/27 08:03:12;;;;;;;10.98;9.88;;;;;;;21.55;72.13;101776.84;5071916;28;20033;-82
2022/05/27 08:05:39;;;;;;;10.60;9.50;;;;;;;21.56;72.33;101789.25;5066534;28;20520;-82
2022/05/27 08:08:06;;;;;;;10.77;9.68;;;;;;;21.55;72.18;101785.72;5063661;28;20036;-82
2022/05/27 08:10:34;;;;;;;10.95;9.52;;;;;;;21.43;72.11;101761.47;5055394;28;20105;-82
2022/05/27 08:13:00;;;;;;;10.18;9.18;;;;;;;21.48;72.47;101773.16;5053726;28;20049;-83
2022/05/27 08:15:27;;;;;;;10.25;9.25;;;;;;;21.57;72.25;101783.09;5070578;28;20028;-83
2022/05/27 08:17:54;;;;;;;10.40;9.40;;;;;;;21.57;72.29;101780.44;5084496;28;20035;-84
2022/05/27 08:20:22;;;;;;;10.73;9.35;;;;;;;21.55;72.42;101767.09;5068904;28;20035;-84
2022/05/27 08:22:49;;;;;;;10.48;9.40;;;;;;;21.55;72.34;101782.16;5068802;28;20032;-83
2022/05/27 08:25:15;;;;;;;10.45;9.45;;;;;;;21.45;72.29;101761.53;5067625;28;20115;-84
2022/05/27 08:27:41;;;;;;;10.27;9.27;;;;;;;21.57;72.18;101780.44;5069739;28;20128;-83
2022/05/27 08:30:10;;;;;;;10.90;9.77;;;;;;;21.61;72.30;101786.72;5068559;28;20050;-83
2022/05/27 08:32:36;;;;;;;10.75;9.50;;;;;;;21.62;72.35;101776.13;5070997;28;20063;-83
2022/05/27 08:38:07;;;;;;;9.77;8.73;;;;;;;21.60;72.24;101764.56;5038496;28;20060;-81
2022/05/27 08:40:54;;;;;;;9.77;8.88;;;;;;;21.49;72.42;101751.00;5070214;28;20028;-83
2022/05/27 08:43:26;;;;;;;10.63;9.52;;;;;;;21.63;72.45;101769.03;5051450;28;20037;-83
2022/05/27 08:45:59;;;;;;;10.52;9.18;;;;;;;21.61;72.93;101766.38;5051661;28;20017;-84
2022/05/27 08:48:27;;;;;;;9.80;8.90;;;;;;;21.63;72.53;101769.03;5050114;28;20124;-83
2022/05/27 08:50:59;;;;;;;10.45;9.45;;;;;;;21.64;72.45;101766.44;5065730;28;20081;-83
2022/05/27 08:53:49;;;;;;;10.88;9.82;;;;;;;21.63;72.60;101769.97;5067862;28;20028;-83
2022/05/27 08:59:40;;;;;;;10.07;9.18;;;;;;;21.64;72.54;101761.13;5054793;28;20122;-82
2022/05/27 09:02:29;;;;;;;10.52;9.43;;;;;;;21.43;72.69;101718.06;5076729;28;20020;-83
2022/05/27 09:05:17;;;;;;;10.57;9.50;;;;;;;21.65;72.76;101760.28;5068355;28;20524;-83
2022/05/27 09:07:55;;;;;;;10.10;9.10;;;;;;;21.65;72.61;101754.03;5083567;28;20058;-82
2022/05/27 09:10:29;;;;;;;10.25;9.25;;;;;;;21.64;72.71;101761.13;5071242;28;20041;-83
2022/05/27 09:13:05;;;;;;;9.70;8.70;;;;;;;21.64;72.89;101747.81;5079025;28;20113;-82
2022/05/27 09:15:34;;;;;;;10.32;9.30;;;;;;;21.67;72.68;101760.28;5077372;28;20023;-83
2022/05/27 09:18:20;;;;;;;9.80;8.90;;;;;;;21.68;72.59;101757.66;5076718;28;20070;-82
2022/05/27 09:21:10;;;;;;;9.68;8.68;;;;;;;21.70;72.61;101757.72;5075269;28;20119;-81
2022/05/27 09:23:55;;;;;;;9.52;8.63;;;;;;;21.70;72.63;101755.06;5078639;28;20016;-82
2022/05/27 09:26:33;;;;;;;9.95;9.05;;;;;;;21.71;72.80;101748.88;5082008;28;20047;-82
2022/05/27 09:29:10;;;;;;;13.68;10.70;;;;;;;21.83;72.82;101754.47;5059719;28;20094;-80
2022/05/27 09:31:42;;;;;;;15.65;12.10;;;;;;;21.70;72.69;101725.81;5066578;28;20028;-83
2022/05/27 09:34:11;;;;;;;13.55;10.88;;;;;;;21.71;73.09;101743.53;5086851;28;20079;-83
2022/05/27 09:36:40;;;;;;;12.70;10.98;;;;;;;21.69;73.19;101745.28;5053194;28;20044;-83
2022/05/27 09:39:13;;;;;;;12.73;10.88;;;;;;;21.60;73.21;101732.66;5086815;28;20428;-83
2022/05/27 09:41:48;;;;;;;12.57;11.02;;;;;;;21.68;73.06;101740.84;5071048;28;20102;-82
2022/05/27 09:44:33;;;;;;;13.30;11.33;;;;;;;21.76;72.99;101747.22;5071097;28;20560;-83
2022/05/27 09:46:59;;;;;;;13.50;10.75;;;;;;;21.93;72.61;101743.19;5071363;28;20456;-85
2022/05/27 09:49:25;;;;;;;13.13;11.43;;;;;;;21.69;73.48;101738.19;5070031;28;20025;-81
2022/05/27 09:51:51;;;;;;;15.07;11.35;;;;;;;21.54;73.53;101712.13;5070961;28;20036;-80
2022/05/27 09:54:17;;;;;;;;;;;;;;;21.73;73.32;101740.06;5071445;28;20029;-83
2022/05/27 09:56:59;;;;;;;23.23;11.85;;;;;;;21.71;73.28;101738.22;5070864;28;19985;-86
2022/05/27 09:59:43;;;;;;;19.20;10.88;;;;;;;21.66;73.14;101719.53;5072551;28;20031;-82
2022/05/27 10:02:14;;;;;;;36.78;11.63;;;;;;;21.84;72.92;101732.31;5073323;28;20591;-81
2022/05/27 10:04:51;;;;;;;29.00;11.63;;;;;;;21.75;73.10;101738.34;5074696;28;20401;-82
2022/05/27 10:07:28;;;;;;;;;;;;;;;21.84;72.96;101732.31;5074958;28;20028;-81
2022/05/27 10:09:54;;;;;;;69.40;14.13;;;;;;;21.81;72.92;101732.28;5074625;28;19916;-81
2022/05/27 10:12:33;;;;;;;102.38;17.10;;;;;;;21.79;73.01;101718.03;5072486;28;20064;-81
2022/05/27 10:14:59;;;;;;;128.38;19.92;;;;;;;21.77;72.93;101713.56;5084530;28;20048;-83
2022/05/27 10:17:36;;;;;;;141.98;19.60;;;;;;;21.78;73.01;101712.69;5073078;28;20028;-82
2022/05/27 10:20:22;;;;;;;183.20;22.38;;;;;;;21.83;72.89;101722.56;5072955;28;20494;-81
2022/05/27 10:23:05;;;;;;;171.63;21.88;;;;;;;21.80;73.17;101717.19;5070822;28;20081;-84
2022/05/27 10:25:36;;;;;;;145.95;19.98;;;;;;;22.13;73.18;101718.78;5088092;28;20024;-85
2022/05/27 10:28:02;;;;;;;1101.10;101.80;;;;;;;21.96;73.33;101689.16;5071982;28;20115;-86
2022/05/27 10:30:31;;;;;;;;;;;;;;;22.01;73.22;101716.75;5089590;28;20036;-87
2022/05/27 10:33:39;;;;;;;570.13;49.95;;;;;;;22.01;73.16;101710.53;5073146;28;19970;-87
2022/05/27 10:36:24;;;;;;;404.92;39.08;;;;;;;21.83;73.08;101669.38;5032003;28;20116;-84
2022/05/27 10:39:07;;;;;;;172.57;22.20;;;;;;;22.24;72.63;101711.97;5070471;28;20029;-87
2022/05/27 10:41:53;;;;;;;94.97;16.25;;;;;;;22.23;72.53;101709.31;5072620;28;20032;-86
2022/05/27 10:44:53;;;;;;;129.90;20.75;;;;;;;22.11;73.08;101704.56;5074321;28;20074;-88
2022/05/27 10:47:37;;;;;;;61.20;13.70;;;;;;;22.13;72.79;101697.50;5073926;28;20508;-83
2022/05/27 10:50:29;;;;;;;99.00;16.67;;;;;;;21.95;73.76;101704.25;5073779;28;20085;-84
2022/05/27 10:53:41;;;;;;;75.20;15.85;;;;;;;21.94;74.00;101701.53;5058454;28;20086;-84
2022/05/27 10:56:25;;;;;;;51.85;14.45;;;;;;;21.99;73.82;101705.19;5077999;28;20043;-85
2022/05/27 11:02:05;;;;;;;37.78;14.63;;;;;;;21.98;74.82;101687.44;5072442;28;20043;-84
2022/05/27 11:04:58;;;;;;;37.25;14.18;;;;;;;21.91;76.22;101691.72;5072322;28;20470;-84
2022/05/27 11:08:10;;;;;;;39.00;13.82;;;;;;;21.93;76.74;101702.41;5072817;28;20485;-85
2022/05/27 11:10:59;;;;;;;34.63;13.60;;;;;;;21.93;76.76;101687.34;5052668;28;20044;-85
2022/05/27 11:16:52;;;;;;;28.20;13.32;;;;;;;21.99;77.00;101681.25;5073102;28;20036;-85
2022/05/27 11:19:29;;;;;;;33.80;14.50;;;;;;;22.05;76.96;101686.69;5073182;28;20029;-84
2022/05/27 11:22:19;;;;;;;29.42;14.32;;;;;;;22.09;77.46;101675.25;5073693;28;20040;-84
2022/05/27 11:25:09;;;;;;;28.50;13.75;;;;;;;22.15;77.42;101678.06;5072986;28;20563;-84
2022/05/27 11:27:40;;;;;;;32.45;15.25;;;;;;;22.15;81.20;101678.06;5073027;28;20028;-83
2022/05/27 11:30:31;;;;;;;31.55;16.58;;;;;;;22.13;81.63;101670.91;5073038;28;20032;-84
2022/05/27 11:33:24;;;;;;;30.00;17.20;;;;;;;22.11;82.06;101672.63;5072866;28;20050;-83
2022/05/27 11:36:11;;;;;;;26.77;15.63;;;;;;;22.10;82.40;101669.09;5072891;28;20036;-84
2022/05/27 11:38:50;;;;;;;27.35;15.48;;;;;;;22.11;82.70;101656.69;5088180;28;20016;-84
2022/05/27 11:41:18;;;;;;;30.27;16.88;;;;;;;22.19;82.86;101656.84;5072762;28;20387;-83
2022/05/27 11:44:09;;;;;;;31.13;18.13;;;;;;;22.25;82.44;101649.91;5072753;28;20028;-84
2022/05/27 11:46:56;;;;;;;34.60;18.85;;;;;;;22.31;83.55;101647.38;5072645;28;20033;-83
2022/05/27 11:49:35;;;;;;;25.95;17.05;;;;;;;22.29;83.19;101635.81;5072492;28;20025;-84
2022/05/27 11:52:08;;;;;;;30.30;16.88;;;;;;;22.39;83.27;101639.53;5072832;28;20515;-83
2022/05/27 11:55:12;;;;;;;30.98;17.17;;;;;;;22.39;83.08;101628.00;5072401;28;20116;-83
2022/05/27 11:58:25;;;;;;;28.40;17.52;;;;;;;22.43;83.59;101633.41;5050260;28;20047;-83
2022/05/27 12:00:57;;;;;;;34.17;17.17;;;;;;;22.46;83.71;101621.94;5063410;28;20498;-83
2022/05/27 12:03:31;;;;;;;25.45;16.77;;;;;;;22.19;84.70;101580.59;5087866;28;20028;-83
2022/05/27 12:06:03;;;;;;;27.50;16.45;;;;;;;22.35;85.26;101605.75;5072201;28;20021;-83
2022/05/27 12:08:53;;;;;;;24.38;16.27;;;;;;;22.50;86.20;101626.41;5071072;28;20024;-84